KSBY/SBY METAR and TAF weather

Enter ICAO airport designator
Station Type Date Time Source
KSBY METAR 2021/02/27 09:05 UTC NOAA

KSBY 270905Z AUTO 11007KT 6SM BR OVC008 08/07 A3020 RMK AO2 RAE01 CIG 006V010 P0000 T00830067


Station Type Date Time Source
KSBY Decoded METAR 2021/02/27 09:05 UTC NOAA

SALISBURY-WICOMICO CTY REG, MD, United States (KSBY) 38-20N 075-30W 19M
Feb 27, 2021 - 04:05 AM EST / 2021.02.27 0905 UTC
Wind: from the ESE (110 degrees) at 8 MPH (7 KT):0
Visibility: 6 mile(s):0
Sky conditions: overcast
Weather: mist
Precipitation last hour: A trace
Temperature: 46.9 F (8.3 C)
Dew Point: 44.1 F (6.7 C)
Relative Humidity: 89%
Pressure (altimeter): 30.2 in. Hg (1022 hPa)
ob: KSBY 270905Z AUTO 11007KT 6SM BR OVC008 08/07 A3020 RMK AO2 RAE01 CIG 006V010 P0000 T00830067
cycle: 9

Station Type Date Time Source
KSBY TAF 2021/02/27 09:21 UTC NOAA

TAF
AMD KSBY 270917Z 2709/2806 12010KT 6SM -RA BR OVC007
FM271300 17012KT 4SM -RA BR OVC005
FM272100 20011KT P6SM OVC015
FM280000 26007KT P6SM BKN035

Example: see airport list